Latest Conditions
At L.F.Wade Int. Airport
Recorded at 2:55 am
Partly Cloudy
Temp.: 
18°C/65°F
Humidity: 
67%
Wind: 
N 16KT
or 18mph
UV Index: 
N/A
Island Observations
Observations
Friday, January 20, 2017

Observations are in local time and taken at least once an hour, or upon the start and end of specified events such as showers and thunderstorms.

Time Sky / Weather Wind Speed/Gusts Temp. R.H. Pressure
     knots (mph)  °C (°F)  %  mb / "Hg
 02:55 Partly Cloudy  N 16/0 (18/0) 18(65) 67 1009 / 29.79
 01:55 Mostly Cloudy  N 16/0 (18/0) 19(66) 68 1009 / 29.79
 01:36 Partly Cloudy  N 17/0 (20/0) 19(66) 66 1009 / 29.79
 01:06 Overcast Showers N 14/0 (16/0) 18(65) 71 1008 / 29.78
 00:55 Overcast Showers N 14/0 (16/0) 19(66) 71 1008 / 29.78
 23:55 Mostly Cloudy  N 19/0 (22/0) 19(66) 68 1008 / 29.78
 22:55 Partly Cloudy Showers N 19/0 (22/0) 19(67) 67 1008 / 29.76
 21:55 Few Clouds  N 18/0 (21/0) 19(66) 71 1008 / 29.76
 20:55 Few Clouds  N 20/30 (23/35) 20(67) 69 1007 / 29.74
 19:55 Partly Cloudy  N 19/0 (22/0) 20(67) 70 1007 / 29.73
 18:55 Partly Cloudy Showers N 18/0 (21/0) 20(67) 73 1006 / 29.70
 17:55 Partly Cloudy  N 18/29 (21/33) 20(67) 74 1005 / 29.68
 17:01 Partly Cloudy  N 17/0 (20/0) 20(68) 74 1004 / 29.65
 16:55 Mostly Cloudy Showers N 20/32 (23/37) 20(68) 76 1004 / 29.65
 16:08 Mostly Cloudy Showers N 18/0 (21/0) 20(67) 76 1003 / 29.63
 16:00 Mostly Cloudy Showers NNW 16/0 (18/0) 20(68) 77 1003 / 29.63
 15:55 Mostly Cloudy Showers N 17/27 (20/31) 20(67) 80 1003 / 29.63
 15:06 Mostly Cloudy Showers NW 18/0 (21/0) 19(67) 82 1003 / 29.61
 14:55 Mostly Cloudy Showers NW 20/0 (23/0) 20(67) 80 1002 / 29.60
 14:38 Mostly Cloudy Showers NW 23/34 (26/39) 19(67) 79 1002 / 29.60
 13:55 Mostly Cloudy  NW 22/0 (25/0) 20(69) 69 1002 / 29.60
 12:55 Partly Cloudy  NW 21/0 (24/0) 20(68) 67 1003 / 29.62
 11:55 Mostly Cloudy  NW 21/0 (24/0) 20(68) 70 1004 / 29.64
 10:55 Mostly Cloudy  NNW 13/0 (15/0) 19(67) 73 1005 / 29.67
 10:25 Mostly Cloudy  NNW 14/0 (16/0) 19(66) 73 1005 / 29.67
 09:55 Mostly Cloudy Showers NNW 14/0 (16/0) 17(62) 85 1005 / 29.67
 09:30 Mostly Cloudy Showers N 19/0 (22/0) 16(61) 83 1004 / 29.66
 09:25 Mostly Cloudy Showers N 19/0 (22/0) 17(62) 79 1004 / 29.66
 08:55 Mostly Cloudy Showers NW 17/0 (20/0) 18(64) 75 1003 / 29.63
 08:45 Mostly Cloudy Showers NW 16/0 (18/0) 18(64) 77 1003 / 29.63
 08:12 Mostly Cloudy Showers NW 16/0 (18/0) 18(64) 77 1003 / 29.62
 07:55 Mostly Cloudy Showers NW 18/0 (21/0) 18(64) 70 1003 / 29.61
 06:55 Mostly Cloudy Showers WNW 20/0 (23/0) 17(63) 71 1002 / 29.60
 06:24 Mostly Cloudy Showers NW 18/0 (21/0) 17(63) 75 1002 / 29.60
 06:06 Mostly Cloudy Showers WNW 21/38 (24/44) 17(63) 77 1002 / 29.59
 05:55 Mostly Cloudy Showers WNW 23/34 (26/39) 18(65) 70 1002 / 29.58
 04:55 Mostly Cloudy Showers W 21/33 (24/38) 16(60) 88 1002 / 29.60
 04:37 Overcast Showers W 17/0 (20/0) 18(64) 85 1002 / 29.59
 03:55 Overcast  WSW 19/0 (22/0) 16(61) 89 1003 / 29.63
 03:31 Overcast Showers WSW 17/0 (20/0) 16(60) 90 1003 / 29.63
 03:10 Overcast Thunderstorm W 22/0 (25/0) 15(60) 90 1004 / 29.65
 02:55 Overcast Thunderstorm W 30/44 (35/51) 16(60) 90 1005 / 29.68
 02:42 Overcast Thunderstorm WSW 24/0 (28/0) 18(65) 87 1005 / 29.68
 02:30 Overcast Thunderstorm WSW 24/0 (28/0) 18(65) 84 1004 / 29.65
 02:12 Overcast Showers WSW 21/32 (24/37) 18(65) 86 1004 / 29.65
 01:55 Overcast Showers W 23/0 (26/0) 18(65) 87 1005 / 29.67
 01:29 Overcast Showers WSW 31/0 (36/0) 18(65) 84 1005 / 29.68
 01:09 Overcast Showers W 23/34 (26/39) 18(64) 90 1005 / 29.69
 00:55 Overcast Showers W 17/0 (20/0) 18(65) 91 1006 / 29.71
 00:43 Overcast Showers W 22/0 (25/0) 18(64) 92 1006 / 29.71
 00:33 Overcast Showers W 24/0 (28/0) 17(63) 91 1007 / 29.73
 00:28 Overcast Showers W 20/0 (23/0) 17(63) 87 1007 / 29.73
 00:19 Overcast Showers W 18/0 (21/0) 18(64) 90 1007 / 29.74
 00:06 Overcast Showers WNW 17/0 (20/0) 18(64) 90 1008 / 29.76
 23:55 Overcast Thunderstorm WSW 17/0 (20/0) 19(66) 86 1007 / 29.75
 23:48 Overcast Thunderstorm WSW 17/0 (20/0) 19(66) 86 1007 / 29.75
 23:02 Overcast Showers WSW 24/0 (28/0) 20(68) 79 1008 / 29.78
 22:55 Overcast Showers WSW 25/0 (29/0) 20(68) 79 1008 / 29.78
 22:38 Overcast  WSW 26/0 (30/0) 20(68) 77 1008 / 29.77
 22:18 Overcast Showers WSW 27/0 (31/0) 20(69) 73 1008 / 29.78
 21:55 Overcast Showers WSW 23/0 (26/0) 20(69) 74 1009 / 29.81
 20:55 Overcast  WSW 21/0 (24/0) 20(69) 74 1010 / 29.84
 19:55 Overcast  WSW 23/0 (26/0) 20(69) 76 1011 / 29.86
 18:55 Mostly Cloudy  W 21/0 (24/0) 20(68) 76 1012 / 29.89
 17:55 Overcast  W 21/0 (24/0) 20(68) 79 1013 / 29.91
 16:55 Overcast  W 21/0 (24/0) 20(69) 76 1013 / 29.91
 15:55 Overcast  W 21/0 (24/0) 21(69) 75 1014 / 29.93
 14:55 Overcast  W 19/0 (22/0) 21(70) 73 1014 / 29.94
 13:55 Overcast  W 19/0 (22/0) 21(69) 75 1015 / 29.96
 13:17 Overcast Showers W 20/0 (23/0) 20(69) 77 1015 / 29.98
 12:55 Overcast Showers W 17/0 (20/0) 20(69) 74 1016 / 29.99
 12:12 Overcast Showers W 18/0 (21/0) 21(69) 73 1017 / 30.02
 11:55 Overcast Showers W 19/0 (22/0) 21(69) 73 1017 / 30.04
 10:55 Overcast Showers W 16/0 (18/0) 20(69) 75 1019 / 30.08
 09:55 Overcast  W 16/0 (18/0) 20(68) 76 1019 / 30.09
 08:55 Mostly Cloudy  W 15/0 (17/0) 20(68) 77 1019 / 30.10
 07:55 Overcast  W 15/0 (17/0) 19(67) 79 1019 / 30.10
 06:55 Mostly Cloudy  W 15/0 (17/0) 19(67) 78 1020 / 30.11
 05:55 Mostly Cloudy  W 14/0 (16/0) 19(66) 79 1020 / 30.11
 04:55 Mostly Cloudy  WSW 15/0 (17/0) 19(66) 77 1020 / 30.12
 03:55 Mostly Cloudy  W 14/0 (16/0) 18(65) 78 1021 / 30.14
 02:55 Partly Cloudy  WSW 12/0 (14/0) 18(65) 78 1021 / 30.16
 01:55 Mostly Cloudy  WSW 11/0 (13/0) 18(64) 78 1022 / 30.18
 00:55 Partly Cloudy  WSW 11/0 (13/0) 18(64) 77 1023 / 30.20
 23:55 Mostly Cloudy  WSW 9/0 (10/0) 18(64) 75 1023 / 30.22
 22:55 Overcast  W 8/0 (9/0) 18(64) 75 1024 / 30.25
 21:55 Partly Cloudy  WSW 8/0 (9/0) 17(63) 75 1024 / 30.25
 20:55 Overcast  WSW 7/0 (8/0) 17(63) 75 1025 / 30.27
 19:55 Partly Cloudy  W 7/0 (8/0) 17(63) 73 1025 / 30.27
 18:55 Partly Cloudy  W 7/0 (8/0) 17(63) 70 1025 / 30.28
 17:55 Partly Cloudy  WNW 7/0 (8/0) 18(64) 70 1025 / 30.28
 16:55 Mostly Cloudy  WSW 5/0 (6/0) 19(66) 64 1025 / 30.27
 15:55 Mostly Cloudy  WSW 6/0 (7/0) 19(66) 61 1025 / 30.28
 14:55 Mostly Cloudy  W 5/0 (6/0) 20(67) 58 1025 / 30.27
 13:55 Mostly Cloudy  W 6/0 (7/0) 19(66) 57 1025 / 30.28
 12:55 Mostly Cloudy  W 5/0 (6/0) 20(67) 55 1026 / 30.29
 11:55 Mostly Cloudy  W 5/0 (6/0) 19(66) 54 1027 / 30.33
 10:55 Mostly Cloudy  VRB 2/0 (2/0) 20(67) 56 1028 / 30.35
 09:55 Mostly Cloudy  SE 3/0 (3/0) 19(66) 56 1028 / 30.35
 08:55 Partly Cloudy  Calm 18(64) 71 1027 / 30.33
Observations from our AWOS sites are available here (password and username are both 'guest').